Time;durP1;ratioP1;P1;durP2;ratioP2;P2;SDS_P1;SDS_P2;PMS_P1;PMS_P2;Temp;Humidity;BMP_temperature;BMP_pressure;BME280_temperature;BME280_humidity;BME280_pressure;Samples;Min_cycle;Max_cycle;Signal;HPM_P1;HPM_P2
2020/12/13 00:02:20;;;;;;;16.07;8.17;;;8.40;99.10;;;;;;5040927;28;20759;-82
2020/12/13 00:04:45;;;;;;;17.67;8.73;;;8.40;99.10;;;;;;5041837;28;20410;-82
2020/12/13 00:07:11;;;;;;;16.17;8.40;;;8.50;99.10;;;;;;5041646;28;20169;-82
2020/12/13 00:09:37;;;;;;;14.57;8.17;;;8.40;99.10;;;;;;5041832;28;20428;-82
2020/12/13 00:12:03;;;;;;;18.27;8.70;;;8.40;99.10;;;;;;5041648;28;20252;-82
2020/12/13 00:14:30;;;;;;;14.05;7.97;;;8.40;99.10;;;;;;5041812;28;20457;-82
2020/12/13 00:16:56;;;;;;;17.40;9.82;;;8.30;99.10;;;;;;5041795;28;20175;-82
2020/12/13 00:19:22;;;;;;;16.58;9.77;;;8.40;99.10;;;;;;5041935;28;20669;-82
2020/12/13 00:21:53;;;;;;;19.77;9.13;;;8.30;99.10;;;;;;5041705;28;20193;-82
2020/12/13 00:24:19;;;;;;;22.02;9.77;;;8.30;99.10;;;;;;5042453;28;20744;-81
2020/12/13 00:26:46;;;;;;;20.73;9.48;;;8.30;99.10;;;;;;5041737;28;20296;-82
2020/12/13 00:29:12;;;;;;;15.70;9.25;;;8.30;99.10;;;;;;5041528;28;20173;-82
2020/12/13 00:31:39;;;;;;;18.33;9.13;;;8.30;99.10;;;;;;5040546;28;20180;-82
2020/12/13 00:34:05;;;;;;;15.90;7.95;;;8.30;99.10;;;;;;5041826;28;20177;-82
2020/12/13 00:36:31;;;;;;;15.57;8.80;;;8.20;99.10;;;;;;5040741;28;20613;-82
2020/12/13 00:38:56;;;;;;;17.30;9.70;;;8.20;99.10;;;;;;5040685;28;20181;-82
2020/12/13 00:41:22;;;;;;;14.57;8.53;;;8.10;99.10;;;;;;5041241;28;20451;-81
2020/12/13 00:43:48;;;;;;;17.13;9.13;;;8.10;99.10;;;;;;5041324;28;20232;-82
2020/12/13 00:46:14;;;;;;;17.87;10.10;;;8.10;99.10;;;;;;5041245;28;20186;-82
2020/12/13 00:48:40;;;;;;;15.97;9.57;;;8.10;99.10;;;;;;5042179;28;20165;-82
2020/12/13 00:51:05;;;;;;;21.10;10.00;;;8.10;99.10;;;;;;5041621;28;20506;-82
2020/12/13 00:53:31;;;;;;;16.50;8.40;;;8.10;99.10;;;;;;5041531;28;20204;-82
2020/12/13 00:55:57;;;;;;;16.33;8.32;;;8.10;99.10;;;;;;5041773;28;20460;-82
2020/12/13 00:58:23;;;;;;;17.17;9.00;;;8.10;99.10;;;;;;5041869;28;20668;-82
2020/12/13 01:00:49;;;;;;;15.60;9.40;;;8.10;99.10;;;;;;5114688;22;20674;-85
2020/12/13 01:03:15;;;;;;;19.20;9.63;;;8.00;99.10;;;;;;5052348;28;20208;-85
2020/12/13 01:05:40;;;;;;;13.73;7.90;;;8.10;99.10;;;;;;5053911;28;20485;-85
2020/12/13 01:08:07;;;;;;;14.60;7.97;;;8.10;99.10;;;;;;5037083;28;20427;-84
2020/12/13 01:10:33;;;;;;;16.67;8.63;;;8.10;99.10;;;;;;5035114;28;21118;-84
2020/12/13 01:12:59;;;;;;;23.43;8.80;;;8.10;99.10;;;;;;5035811;28;20246;-85
2020/12/13 01:15:24;;;;;;;16.87;8.90;;;8.10;99.10;;;;;;5035587;28;20558;-85
2020/12/13 01:17:50;;;;;;;16.03;8.50;;;8.10;99.10;;;;;;5035701;28;20236;-85
2020/12/13 01:20:17;;;;;;;16.73;10.07;;;8.10;99.10;;;;;;5035795;28;20430;-84
2020/12/13 01:22:43;;;;;;;17.52;9.52;;;8.10;99.10;;;;;;5035222;28;20501;-85
2020/12/13 01:25:09;;;;;;;15.10;9.07;;;8.20;99.10;;;;;;5035564;28;20224;-85
2020/12/13 01:27:36;;;;;;;14.35;8.57;;;8.20;99.10;;;;;;5035831;28;20539;-85
2020/12/13 01:30:05;;;;;;;20.50;8.45;;;8.10;99.10;;;;;;5035817;28;20169;-84
2020/12/13 01:32:39;;;;;;;11.65;7.32;;;8.20;99.10;;;;;;5035935;28;20202;-84
2020/12/13 01:35:05;;;;;;;13.70;7.50;;;8.20;99.10;;;;;;5036076;28;20220;-84
2020/12/13 01:37:31;;;;;;;11.55;7.05;;;8.20;99.10;;;;;;5036047;28;20260;-85
2020/12/13 01:39:57;;;;;;;21.50;7.83;;;8.30;99.10;;;;;;5036622;28;20205;-85
2020/12/13 01:42:23;;;;;;;13.67;7.87;;;8.30;99.10;;;;;;5035758;28;20462;-84
2020/12/13 01:44:48;;;;;;;9.27;5.47;;;8.30;99.10;;;;;;5035469;28;20668;-84
2020/12/13 01:47:14;;;;;;;12.93;5.93;;;8.30;99.10;;;;;;5037073;28;20413;-85
2020/12/13 01:49:43;;;;;;;14.77;6.47;;;8.30;99.10;;;;;;5039687;28;20173;-85
2020/12/13 01:54:37;;;;;;;9.90;5.50;;;8.30;99.10;;;;;;5057597;28;20169;-84
2020/12/13 01:57:05;;;;;;;13.48;5.57;;;8.30;99.10;;;;;;5039553;28;20710;-85
2020/12/13 01:59:35;;;;;;;13.20;5.97;;;8.30;99.10;;;;;;5039506;28;20174;-84
2020/12/13 02:02:04;;;;;;;12.85;6.03;;;8.30;99.10;;;;;;5039443;28;20201;-84
2020/12/13 02:04:33;;;;;;;13.10;6.00;;;8.30;99.10;;;;;;5040171;28;20197;-84
2020/12/13 02:07:02;;;;;;;13.05;7.75;;;8.20;99.10;;;;;;5039581;28;20184;-85
2020/12/13 02:09:28;;;;;;;18.92;6.88;;;8.10;99.10;;;;;;5039665;28;20180;-84
2020/12/13 02:11:54;;;;;;;17.10;8.15;;;8.10;99.10;;;;;;5039237;28;20195;-85
2020/12/13 02:14:20;;;;;;;16.77;8.40;;;8.10;99.10;;;;;;5039204;28;20181;-85
2020/12/13 02:16:53;;;;;;;15.30;7.32;;;8.10;99.10;;;;;;5038691;28;20436;-85
2020/12/13 02:19:19;;;;;;;13.27;8.25;;;8.10;99.10;;;;;;5038964;28;20162;-85
2020/12/13 02:21:47;;;;;;;14.07;7.65;;;8.10;99.10;;;;;;5038707;28;20299;-85
2020/12/13 02:24:13;;;;;;;19.20;9.18;;;8.20;99.10;;;;;;5038881;28;20169;-85
2020/12/13 02:26:41;;;;;;;19.15;8.82;;;8.20;99.10;;;;;;5038886;28;20579;-85
2020/12/13 02:29:07;;;;;;;16.30;8.00;;;8.10;99.10;;;;;;5038995;28;20222;-84
2020/12/13 02:31:33;;;;;;;15.70;8.50;;;8.10;99.10;;;;;;5038249;28;20641;-85
2020/12/13 02:34:01;;;;;;;17.42;7.97;;;8.10;99.10;;;;;;5038793;28;20683;-84
2020/12/13 02:36:30;;;;;;;15.95;8.10;;;8.20;99.10;;;;;;5038676;28;20201;-85
2020/12/13 02:38:56;;;;;;;11.45;7.43;;;8.20;99.10;;;;;;5038628;28;20173;-85
2020/12/13 02:41:22;;;;;;;16.90;7.88;;;8.20;99.10;;;;;;5038578;28;20734;-85
2020/12/13 02:43:48;;;;;;;18.60;8.20;;;8.20;99.10;;;;;;5038565;28;20169;-85
2020/12/13 02:46:14;;;;;;;13.68;8.35;;;8.20;99.10;;;;;;5038409;28;20884;-85
2020/12/13 02:48:40;;;;;;;12.13;8.10;;;8.20;99.10;;;;;;5038748;28;20208;-85
2020/12/13 02:51:05;;;;;;;16.33;8.50;;;8.20;99.10;;;;;;5038477;28;20845;-86
2020/12/13 02:53:31;;;;;;;17.07;8.10;;;8.10;99.10;;;;;;5038432;28;20173;-84
2020/12/13 02:55:57;;;;;;;21.00;9.43;;;8.10;99.10;;;;;;5038173;28;20250;-85
2020/12/13 02:58:23;;;;;;;13.53;7.00;;;8.10;99.10;;;;;;5037213;28;20223;-85
2020/12/13 03:00:48;;;;;;;13.53;7.60;;;8.10;99.10;;;;;;5037595;28;20408;-85
2020/12/13 03:03:14;;;;;;;19.60;7.97;;;8.10;99.10;;;;;;5037405;28;20197;-85
2020/12/13 03:05:40;;;;;;;13.27;7.60;;;8.00;99.10;;;;;;5037416;28;20193;-85
2020/12/13 03:08:07;;;;;;;10.23;7.30;;;8.10;99.10;;;;;;5037655;28;20501;-85
2020/12/13 03:10:33;;;;;;;12.15;6.93;;;8.10;99.10;;;;;;5037635;28;20845;-85
2020/12/13 03:12:58;;;;;;;12.40;6.25;;;8.10;99.10;;;;;;5037891;28;20200;-85
2020/12/13 03:15:24;;;;;;;13.37;7.20;;;8.20;99.10;;;;;;5038069;28;20193;-85
2020/12/13 03:17:50;;;;;;;13.90;8.10;;;8.10;99.10;;;;;;5037605;28;20683;-85
2020/12/13 03:20:15;;;;;;;13.20;8.03;;;8.00;99.10;;;;;;5038072;28;20582;-85
2020/12/13 03:22:41;;;;;;;14.43;7.37;;;7.90;99.10;;;;;;5037782;28;20538;-85
2020/12/13 03:25:07;;;;;;;22.03;8.10;;;7.80;99.10;;;;;;5037526;28;20258;-85
2020/12/13 03:27:33;;;;;;;21.93;9.07;;;7.80;99.10;;;;;;5037433;28;20188;-85
2020/12/13 03:29:59;;;;;;;15.53;8.47;;;7.80;99.10;;;;;;5037671;28;20169;-86
2020/12/13 03:32:24;;;;;;;24.87;9.23;;;7.70;99.10;;;;;;5037795;28;20420;-85
2020/12/13 03:34:50;;;;;;;16.53;9.27;;;7.70;99.10;;;;;;5037349;28;20446;-85
2020/12/13 03:37:17;;;;;;;17.20;9.23;;;7.80;99.10;;;;;;5037840;28;20766;-86
2020/12/13 03:39:43;;;;;;;25.88;10.68;;;7.80;99.10;;;;;;5037816;28;20411;-86
2020/12/13 03:42:09;;;;;;;16.50;9.15;;;7.80;99.10;;;;;;5037558;28;20193;-86
2020/12/13 03:44:35;;;;;;;16.50;9.30;;;7.80;99.10;;;;;;5037586;28;20165;-86
2020/12/13 03:47:00;;;;;;;15.93;8.47;;;7.80;99.10;;;;;;5037405;28;20772;-85
2020/12/13 03:49:26;;;;;;;13.20;8.70;;;7.80;99.10;;;;;;5037397;28;20407;-86
2020/12/13 03:51:52;;;;;;;12.40;7.13;;;7.80;99.10;;;;;;5037271;28;20511;-86
2020/12/13 03:54:17;;;;;;;10.83;6.60;;;7.80;99.10;;;;;;5037423;28;20231;-86
2020/12/13 03:56:43;;;;;;;12.13;6.60;;;7.80;99.10;;;;;;5037238;28;20189;-86
2020/12/13 03:59:09;;;;;;;11.40;5.77;;;7.80;99.10;;;;;;5037385;28;20173;-85
2020/12/13 04:01:35;;;;;;;9.20;5.83;;;7.80;99.10;;;;;;5037087;28;20292;-85
2020/12/13 04:04:00;;;;;;;7.10;4.40;;;7.90;99.10;;;;;;5037179;28;21087;-86
2020/12/13 04:06:26;;;;;;;10.03;5.00;;;7.80;99.10;;;;;;5037154;28;20203;-86
2020/12/13 04:08:52;;;;;;;10.13;4.60;;;7.80;99.10;;;;;;5037111;28;20172;-86
2020/12/13 04:11:18;;;;;;;7.13;4.23;;;7.80;99.10;;;;;;5036965;28;20572;-86
2020/12/13 04:13:44;;;;;;;7.43;4.20;;;7.80;99.10;;;;;;5037096;28;20223;-86
2020/12/13 04:16:13;;;;;;;8.07;5.63;;;7.90;99.10;;;;;;5037228;28;20242;-86
2020/12/13 04:18:39;;;;;;;7.03;3.33;;;7.80;99.10;;;;;;5037173;28;20173;-86
2020/12/13 04:21:04;;;;;;;5.90;3.45;;;7.80;99.10;;;;;;5036912;28;20672;-86
2020/12/13 04:23:31;;;;;;;13.23;4.07;;;7.90;99.10;;;;;;5037044;28;20169;-86
2020/12/13 04:25:57;;;;;;;24.83;5.30;;;7.90;99.10;;;;;;5037029;28;20470;-86
2020/12/13 04:28:23;;;;;;;5.03;3.10;;;7.90;99.10;;;;;;5037187;28;20173;-86
2020/12/13 04:30:49;;;;;;;5.80;3.57;;;7.90;99.10;;;;;;5036962;28;20173;-86
2020/12/13 04:33:15;;;;;;;10.52;4.15;;;8.00;99.10;;;;;;5036913;28;20466;-85
2020/12/13 04:35:41;;;;;;;6.10;4.23;;;8.00;99.10;;;;;;5037108;28;20173;-85
2020/12/13 04:38:07;;;;;;;8.23;4.00;;;8.00;99.10;;;;;;5036399;28;20843;-84
2020/12/13 04:40:34;;;;;;;8.67;4.57;;;8.00;99.10;;;;;;5036702;28;20446;-84
2020/12/13 04:43:01;;;;;;;7.40;4.60;;;8.10;99.10;;;;;;5036572;28;20458;-84
2020/12/13 04:45:27;;;;;;;14.07;4.57;;;8.10;99.10;;;;;;5036447;28;20204;-84
2020/12/13 04:48:06;;;;;;;8.82;4.40;;;8.00;99.10;;;;;;5037056;28;20541;-84
2020/12/13 04:50:37;;;;;;;6.10;3.72;;;8.10;99.10;;;;;;5037288;28;20200;-84
2020/12/13 04:53:15;;;;;;;6.85;3.58;;;8.10;99.10;;;;;;5036952;28;20211;-84
2020/12/13 04:56:00;;;;;;;8.85;4.50;;;8.20;99.10;;;;;;5036664;28;20201;-84
2020/12/13 04:58:27;;;;;;;7.38;5.22;;;8.20;99.10;;;;;;5036661;28;20173;-85
2020/12/13 05:01:01;;;;;;;8.55;4.20;;;8.20;99.10;;;;;;5038198;28;20652;-85
2020/12/13 05:03:29;;;;;;;11.13;4.35;;;8.20;99.10;;;;;;5036782;28;20534;-85
2020/12/13 05:06:00;;;;;;;8.27;4.85;;;8.20;99.10;;;;;;5036385;28;20189;-85
2020/12/13 05:08:27;;;;;;;10.20;5.03;;;8.20;99.10;;;;;;5036570;28;20622;-85
2020/12/13 05:10:53;;;;;;;10.18;5.38;;;8.20;99.10;;;;;;5036494;28;20224;-85
2020/12/13 05:13:19;;;;;;;7.13;4.25;;;8.20;99.10;;;;;;5036180;28;20189;-85
2020/12/13 05:15:46;;;;;;;9.43;5.17;;;8.30;99.10;;;;;;5036584;28;20207;-85
2020/12/13 05:18:12;;;;;;;7.32;3.55;;;8.20;99.10;;;;;;5036595;28;20420;-85
2020/12/13 05:20:37;;;;;;;7.85;4.20;;;8.20;99.10;;;;;;5036409;28;20249;-85
2020/12/13 05:23:03;;;;;;;7.43;4.17;;;8.20;99.10;;;;;;5035476;28;20209;-86
2020/12/13 05:25:30;;;;;;;6.97;4.40;;;8.20;99.10;;;;;;5036159;28;20228;-85
2020/12/13 05:27:59;;;;;;;7.95;4.05;;;8.20;99.10;;;;;;5036236;28;20210;-84
2020/12/13 05:30:33;;;;;;;6.43;4.13;;;8.10;99.10;;;;;;5036139;28;20248;-85
2020/12/13 05:33:08;;;;;;;7.57;4.95;;;8.10;99.10;;;;;;5036111;28;20167;-85
2020/12/13 05:35:34;;;;;;;9.70;5.20;;;8.20;99.10;;;;;;5035756;28;20197;-85
2020/12/13 05:38:08;;;;;;;10.47;4.50;;;8.10;99.10;;;;;;5035736;28;20188;-85
2020/12/13 05:40:35;;;;;;;7.72;5.15;;;8.10;99.10;;;;;;5036137;28;20392;-85
2020/12/13 05:43:19;;;;;;;9.55;4.53;;;8.10;99.10;;;;;;5035895;28;20201;-85
2020/12/13 05:53:37;;;;;;;7.18;4.10;;;8.20;99.10;;;;;;5053595;28;20168;-85
2020/12/13 05:56:06;;;;;;;8.25;3.33;;;8.20;99.10;;;;;;5035398;28;20193;-85
2020/12/13 05:58:32;;;;;;;5.45;3.58;;;8.20;99.10;;;;;;5035742;28;20178;-85
2020/12/13 06:00:58;;;;;;;4.68;3.33;;;8.20;99.10;;;;;;5035897;28;20177;-85
2020/12/13 06:03:32;;;;;;;6.70;3.92;;;8.30;99.10;;;;;;5035534;28;20193;-85
2020/12/13 06:06:09;;;;;;;5.95;3.47;;;8.30;99.10;;;;;;5035322;28;20219;-85
2020/12/13 06:09:03;;;;;;;9.65;3.88;;;8.30;99.10;;;;;;5035366;28;20161;-85
2020/12/13 06:11:58;;;;;;;6.72;3.03;;;8.30;99.10;;;;;;5035635;28;20173;-85
2020/12/13 06:14:24;;;;;;;6.28;3.05;;;8.40;99.10;;;;;;5035166;28;20158;-86
2020/12/13 06:16:50;;;;;;;5.47;3.50;;;8.40;99.10;;;;;;5034873;28;20208;-85
2020/12/13 06:19:24;;;;;;;6.30;2.72;;;8.30;99.10;;;;;;5035502;28;20231;-85
2020/12/13 06:21:51;;;;;;;5.13;3.17;;;8.30;99.10;;;;;;5035017;28;20665;-84
2020/12/13 06:24:17;;;;;;;6.40;3.25;;;8.30;99.10;;;;;;5035420;28;20176;-85
2020/12/13 06:26:43;;;;;;;4.88;3.40;;;8.30;99.10;;;;;;5034801;28;20185;-85
2020/12/13 06:29:09;;;;;;;6.95;4.07;;;8.40;99.10;;;;;;5034849;28;20165;-85
2020/12/13 06:31:37;;;;;;;5.60;3.00;;;8.30;99.10;;;;;;5035169;28;20208;-85
2020/12/13 06:34:04;;;;;;;6.07;3.28;;;8.40;99.10;;;;;;5037048;28;20529;-84
2020/12/13 06:36:33;;;;;;;9.85;3.00;;;8.40;99.10;;;;;;5038445;28;20189;-85
2020/12/13 06:38:58;;;;;;;7.00;3.58;;;8.40;99.10;;;;;;5038521;28;20173;-85
2020/12/13 06:41:31;;;;;;;3.88;2.40;;;8.40;99.10;;;;;;5038205;28;20215;-86
2020/12/13 06:44:06;;;;;;;4.60;3.10;;;8.40;99.10;;;;;;5038216;28;20165;-85
2020/12/13 06:46:34;;;;;;;4.28;2.80;;;8.40;99.10;;;;;;5038636;28;20243;-85
2020/12/13 06:49:00;;;;;;;5.55;2.83;;;8.40;99.10;;;;;;5038516;28;20177;-84
2020/12/13 06:51:27;;;;;;;5.67;3.50;;;8.40;99.10;;;;;;5038743;28;20173;-84
2020/12/13 06:53:54;;;;;;;4.95;2.75;;;8.40;99.10;;;;;;5038595;28;20219;-84
2020/12/13 06:56:20;;;;;;;4.82;2.58;;;8.40;99.10;;;;;;5038411;28;20559;-84
2020/12/13 06:58:48;;;;;;;5.28;2.97;;;8.40;99.10;;;;;;5038467;28;20165;-84
2020/12/13 07:01:18;;;;;;;4.55;3.13;;;8.40;99.10;;;;;;5037878;28;20237;-84
2020/12/13 07:03:46;;;;;;;4.22;3.00;;;8.40;99.10;;;;;;5038140;28;20645;-84
2020/12/13 07:06:18;;;;;;;6.38;2.80;;;8.40;99.10;;;;;;5109248;23;20224;-81
2020/12/13 07:08:49;;;;;;;4.65;2.90;;;8.40;99.10;;;;;;5045692;28;20157;-81
2020/12/13 07:11:16;;;;;;;4.38;3.00;;;8.50;99.10;;;;;;5044530;28;20172;-81
2020/12/13 07:13:46;;;;;;;5.97;2.63;;;8.50;99.10;;;;;;5042914;28;20173;-81
2020/12/13 07:16:31;;;;;;;6.22;2.88;;;8.50;99.10;;;;;;5043076;28;20193;-81
2020/12/13 07:19:02;;;;;;;6.63;3.20;;;8.50;99.10;;;;;;5042264;28;20644;-80
2020/12/13 07:21:28;;;;;;;5.82;3.05;;;8.40;99.10;;;;;;5042857;28;20197;-80
2020/12/13 07:23:57;;;;;;;4.25;2.70;;;8.40;99.10;;;;;;5042101;28;20172;-81
2020/12/13 07:26:23;;;;;;;7.05;3.22;;;8.30;99.10;;;;;;5042973;28;20185;-81
2020/12/13 07:28:50;;;;;;;2.50;2.17;;;8.30;98.80;;;;;;5042644;28;20180;-81
2020/12/13 07:31:18;;;;;;;4.22;2.47;;;8.30;98.90;;;;;;5041514;28;20165;-81
2020/12/13 07:33:45;;;;;;;2.55;1.83;;;8.30;98.80;;;;;;5041791;28;20241;-80
2020/12/13 07:36:11;;;;;;;3.65;2.17;;;8.30;98.60;;;;;;5041191;28;20197;-81
2020/12/13 07:38:39;;;;;;;3.10;2.40;;;8.30;98.80;;;;;;5040771;28;20563;-81
2020/12/13 07:41:21;;;;;;;5.80;2.33;;;8.30;98.80;;;;;;5042581;28;20183;-82
2020/12/13 07:43:59;;;;;;;2.42;2.00;;;8.40;98.40;;;;;;5044359;28;20295;-81
2020/12/13 07:46:27;;;;;;;3.63;1.80;;;8.40;98.30;;;;;;5041701;28;20199;-81
2020/12/13 07:49:00;;;;;;;3.00;1.90;;;8.40;98.70;;;;;;5042718;28;20643;-81
2020/12/13 07:51:26;;;;;;;3.45;1.83;;;8.40;99.00;;;;;;5043850;28;20633;-81
2020/12/13 07:53:52;;;;;;;3.83;1.60;;;8.50;98.70;;;;;;5042563;28;20200;-81
2020/12/13 07:56:25;;;;;;;4.40;2.30;;;8.50;98.60;;;;;;5042530;28;20557;-81
2020/12/13 07:59:06;;;;;;;2.80;1.85;;;8.50;98.80;;;;;;5043474;28;20439;-81
2020/12/13 08:01:31;;;;;;;4.03;1.90;;;8.50;99.10;;;;;;5043710;28;20196;-81
2020/12/13 08:03:57;;;;;;;2.20;1.80;;;8.50;99.10;;;;;;5043182;28;20169;-81
2020/12/13 08:06:23;;;;;;;3.07;1.67;;;8.50;99.10;;;;;;5042914;28;20466;-81
2020/12/13 08:08:49;;;;;;;3.17;1.43;;;8.50;99.10;;;;;;5043997;28;20177;-81
2020/12/13 08:11:15;;;;;;;3.17;1.87;;;8.50;99.10;;;;;;5042311;28;20505;-81
2020/12/13 08:13:52;;;;;;;3.70;2.10;;;8.60;99.10;;;;;;5040890;28;20648;-81
2020/12/13 08:16:18;;;;;;;3.65;1.98;;;8.60;99.10;;;;;;5041768;28;20554;-81
2020/12/13 08:18:47;;;;;;;2.00;1.50;;;8.60;99.10;;;;;;5041697;28;20170;-81
2020/12/13 08:21:18;;;;;;;2.92;1.70;;;8.70;99.10;;;;;;5041810;28;20176;-81
2020/12/13 08:23:47;;;;;;;2.10;1.33;;;8.60;99.10;;;;;;5042918;28;20169;-81
2020/12/13 08:26:15;;;;;;;10.20;2.25;;;8.60;99.10;;;;;;5042856;28;20620;-82
2020/12/13 08:28:42;;;;;;;2.95;1.70;;;8.60;99.10;;;;;;5042143;28;20193;-81
2020/12/13 08:31:13;;;;;;;2.30;1.60;;;8.70;99.10;;;;;;5044069;28;20593;-81
2020/12/13 08:33:41;;;;;;;1.13;1.00;;;8.60;99.10;;;;;;5044547;28;20204;-81
2020/12/13 08:36:20;;;;;;;5.82;1.40;;;8.60;99.10;;;;;;5043319;28;20275;-81
2020/12/13 08:38:59;;;;;;;1.85;1.27;;;8.50;99.10;;;;;;5043406;28;20179;-81
2020/12/13 08:41:25;;;;;;;3.05;1.40;;;8.50;99.10;;;;;;5042735;28;20179;-81
2020/12/13 08:43:50;;;;;;;4.33;1.73;;;8.50;99.10;;;;;;5043445;28;20261;-81
2020/12/13 08:46:38;;;;;;;6.93;1.73;;;8.50;99.10;;;;;;5041931;28;20877;-81
2020/12/13 08:49:05;;;;;;;4.78;2.30;;;8.50;99.10;;;;;;5042265;28;20197;-82
2020/12/13 08:51:32;;;;;;;3.75;2.08;;;8.60;99.10;;;;;;5042341;28;20704;-81
2020/12/13 08:54:00;;;;;;;3.63;2.15;;;8.60;99.10;;;;;;5042978;28;20169;-84
2020/12/13 08:56:35;;;;;;;2.95;1.95;;;8.60;99.10;;;;;;5041565;28;20197;-81
2020/12/13 08:59:03;;;;;;;4.72;2.20;;;8.70;99.10;;;;;;5041645;28;20172;-82
2020/12/13 09:01:34;;;;;;;3.08;2.28;;;8.80;99.10;;;;;;5039071;28;20541;-81
2020/12/13 09:04:01;;;;;;;3.30;2.30;;;8.90;99.10;;;;;;5041018;28;20161;-81
2020/12/13 09:06:35;;;;;;;2.25;1.50;;;9.00;99.10;;;;;;5040399;28;20288;-82
2020/12/13 09:09:12;;;;;;;2.75;2.00;;;9.00;99.10;;;;;;5039140;28;20643;-82
2020/12/13 09:11:39;;;;;;;3.13;1.90;;;9.10;99.10;;;;;;5040208;28;20204;-82
2020/12/13 09:14:05;;;;;;;7.03;2.30;;;9.10;99.10;;;;;;5040570;28;20235;-82
2020/12/13 09:16:33;;;;;;;3.40;2.30;;;9.10;99.10;;;;;;5039475;28;20656;-83
2020/12/13 09:19:11;;;;;;;22.23;5.80;;;9.30;99.10;;;;;;5039592;28;21049;-82
2020/12/13 09:21:51;;;;;;;6.97;2.65;;;9.30;99.10;;;;;;5039602;28;20557;-82
2020/12/13 09:24:20;;;;;;;14.50;5.38;;;9.20;99.10;;;;;;5040356;28;20224;-82
2020/12/13 09:27:09;;;;;;;11.25;5.63;;;9.30;99.10;;;;;;5040721;28;20222;-82
2020/12/13 09:29:37;;;;;;;13.50;4.90;;;9.40;99.10;;;;;;5040359;28;20195;-81
2020/12/13 09:32:04;;;;;;;5.13;2.67;;;9.40;99.10;;;;;;5040952;28;20169;-81
2020/12/13 09:34:30;;;;;;;2.55;2.20;;;9.40;99.10;;;;;;5040746;28;20180;-82
2020/12/13 09:36:56;;;;;;;3.63;2.53;;;9.40;99.10;;;;;;5038929;28;20177;-82
2020/12/13 09:39:22;;;;;;;9.27;3.75;;;9.40;99.10;;;;;;5038380;28;20660;-81
2020/12/13 09:41:48;;;;;;;10.60;4.70;;;9.50;99.10;;;;;;5038202;28;20303;-81
2020/12/13 09:44:14;;;;;;;3.90;2.47;;;9.50;98.50;;;;;;5038913;28;20491;-82
2020/12/13 09:46:40;;;;;;;6.90;2.80;;;9.50;97.00;;;;;;5042781;28;20466;-82
2020/12/13 09:49:05;;;;;;;7.50;3.00;;;9.50;96.50;;;;;;5043136;28;20426;-82
2020/12/13 09:51:31;;;;;;;3.07;2.10;;;9.50;96.70;;;;;;5060906;28;20169;-82
2020/12/13 09:53:57;;;;;;;5.87;2.90;;;9.50;95.20;;;;;;5041734;28;20177;-82
2020/12/13 09:56:23;;;;;;;3.40;2.60;;;9.60;96.00;;;;;;5041543;28;20193;-81
2020/12/13 09:58:48;;;;;;;4.90;2.77;;;9.60;95.70;;;;;;5039939;28;20173;-82
2020/12/13 10:01:15;;;;;;;4.45;2.70;;;9.70;94.90;;;;;;5041465;28;20223;-82
2020/12/13 10:03:53;;;;;;;10.30;2.53;;;9.80;95.00;;;;;;5042937;28;20455;-82
2020/12/13 10:11:38;;;;;;;9.77;3.25;;;10.00;94.90;;;;;;5060000;28;20172;-82
2020/12/13 10:14:05;;;;;;;8.80;4.40;;;10.00;96.60;;;;;;5040795;28;20174;-83
2020/12/13 10:16:32;;;;;;;14.23;5.63;;;10.00;96.40;;;;;;5040944;28;20703;-83
2020/12/13 10:18:58;;;;;;;11.15;5.97;;;10.00;96.50;;;;;;5041302;28;20649;-82
2020/12/13 10:21:28;;;;;;;7.63;4.70;;;10.00;97.00;;;;;;5041042;28;20264;-82
2020/12/13 10:23:54;;;;;;;9.90;4.72;;;10.20;97.60;;;;;;5041576;28;20415;-82
2020/12/13 10:26:26;;;;;;;8.25;4.57;;;10.20;96.10;;;;;;5041453;28;20193;-82
2020/12/13 10:29:07;;;;;;;12.10;3.72;;;10.30;95.50;;;;;;5041044;28;20173;-82
2020/12/13 10:31:35;;;;;;;9.68;3.58;;;10.30;94.90;;;;;;5040683;28;20168;-82
2020/12/13 10:34:02;;;;;;;6.38;2.72;;;10.30;93.70;;;;;;5042109;28;20818;-82
2020/12/13 10:36:31;;;;;;;10.45;3.17;;;10.30;93.10;;;;;;5042036;28;20189;-82
2020/12/13 10:38:56;;;;;;;5.43;2.75;;;10.30;93.00;;;;;;5040689;28;20231;-82
2020/12/13 10:41:22;;;;;;;5.17;3.23;;;10.30;92.70;;;;;;5041634;28;20168;-82
2020/12/13 10:43:49;;;;;;;5.97;2.87;;;10.30;92.00;;;;;;5041190;28;20649;-82
2020/12/13 10:46:15;;;;;;;3.75;2.80;;;10.30;90.80;;;;;;5043306;28;20435;-82
2020/12/13 10:48:42;;;;;;;6.33;3.37;;;10.30;90.60;;;;;;5041975;28;20165;-82
2020/12/13 10:51:07;;;;;;;6.75;2.67;;;10.40;91.90;;;;;;5040947;28;20985;-82
2020/12/13 10:53:33;;;;;;;6.87;3.03;;;10.40;91.60;;;;;;5041248;28;20174;-81
2020/12/13 10:55:59;;;;;;;3.53;2.55;;;10.40;91.30;;;;;;5041103;28;20447;-82
2020/12/13 10:58:25;;;;;;;3.47;2.53;;;10.40;90.70;;;;;;5042310;28;20184;-82
2020/12/13 11:00:51;;;;;;;6.30;2.60;;;10.40;90.40;;;;;;5041765;28;20423;-81
2020/12/13 11:03:17;;;;;;;5.50;3.17;;;10.40;90.10;;;;;;5044299;28;20805;-82
2020/12/13 11:05:47;;;;;;;3.47;2.58;;;10.50;90.40;;;;;;5041700;28;20338;-82
2020/12/13 11:08:16;;;;;;;6.43;2.83;;;10.60;90.30;;;;;;5041456;28;20166;-81
2020/12/13 11:10:49;;;;;;;3.75;1.98;;;10.70;86.70;;;;;;5041387;28;20196;-82
2020/12/13 11:13:15;;;;;;;4.72;1.95;;;10.80;86.70;;;;;;5040971;28;20181;-82
2020/12/13 11:15:43;;;;;;;8.18;2.30;;;10.90;86.30;;;;;;5040869;28;20194;-81
2020/12/13 11:18:09;;;;;;;2.42;1.13;;;11.00;86.70;;;;;;5045688;28;20265;-82
2020/12/13 11:20:35;;;;;;;1.15;1.02;;;11.00;79.20;;;;;;5043137;28;20272;-82
2020/12/13 11:23:00;;;;;;;6.03;2.60;;;10.90;78.90;;;;;;5043029;28;20197;-81
2020/12/13 11:25:26;;;;;;;4.60;1.40;;;10.80;79.50;;;;;;5047703;28;20427;-81
2020/12/13 11:27:54;;;;;;;4.57;2.10;;;10.70;79.40;;;;;;5048419;28;20419;-81
2020/12/13 11:30:20;;;;;;;6.43;0.98;;;10.60;79.90;;;;;;5048144;28;20175;-81
2020/12/13 11:32:46;;;;;;;3.92;1.50;;;10.50;80.20;;;;;;5045853;28;20220;-81
2020/12/13 11:35:13;;;;;;;2.10;1.38;;;10.30;81.60;;;;;;5046728;28;20288;-82
2020/12/13 11:37:39;;;;;;;3.85;2.00;;;10.30;83.00;;;;;;5046060;28;20188;-82
2020/12/13 11:40:06;;;;;;;2.40;1.52;;;10.20;83.10;;;;;;5046920;28;20183;-82
2020/12/13 11:42:33;;;;;;;1.67;1.42;;;10.10;84.20;;;;;;5043472;28;20201;-82
2020/12/13 11:44:59;;;;;;;2.92;1.80;;;10.10;84.40;;;;;;5044625;28;20193;-82
2020/12/13 11:47:28;;;;;;;9.33;2.63;;;10.00;84.40;;;;;;5042657;28;20169;-81
2020/12/13 11:49:54;;;;;;;3.08;1.70;;;10.10;85.30;;;;;;5040430;28;20508;-82
2020/12/13 11:52:19;;;;;;;4.97;1.90;;;10.10;85.30;;;;;;5040630;28;20205;-81
2020/12/13 11:54:45;;;;;;;2.53;1.50;;;10.00;83.90;;;;;;5040703;28;20504;-81
2020/12/13 11:57:14;;;;;;;5.00;1.73;;;9.90;85.50;;;;;;5041742;28;20415;-82
2020/12/13 11:59:40;;;;;;;5.28;1.80;;;9.90;86.00;;;;;;5041317;28;20274;-81
2020/12/13 12:02:06;;;;;;;3.55;2.05;;;9.90;85.60;;;;;;5042407;28;20283;-82
2020/12/13 12:04:32;;;;;;;9.82;2.47;;;9.90;85.90;;;;;;5039872;28;20169;-82
2020/12/13 12:06:58;;;;;;;4.70;2.67;;;9.90;85.80;;;;;;5039607;28;20267;-82
2020/12/13 12:09:23;;;;;;;3.33;1.80;;;9.80;86.30;;;;;;5039538;28;20408;-82
2020/12/13 12:11:49;;;;;;;2.33;1.47;;;9.80;85.30;;;;;;5038754;28;20984;-82
2020/12/13 12:14:15;;;;;;;5.05;1.77;;;9.80;85.50;;;;;;5039397;28;20197;-82
2020/12/13 12:16:44;;;;;;;1.80;1.33;;;9.80;85.80;;;;;;5039722;28;20276;-82
2020/12/13 12:19:16;;;;;;;3.78;1.70;;;9.70;86.20;;;;;;5041595;28;20760;-82
2020/12/13 12:21:47;;;;;;;4.70;1.70;;;9.80;86.30;;;;;;5044003;28;20203;-81
2020/12/13 12:24:20;;;;;;;2.30;1.55;;;9.70;86.30;;;;;;5043712;28;20184;-82
2020/12/13 12:26:46;;;;;;;2.38;1.17;;;9.70;86.40;;;;;;5043654;28;20216;-80
2020/12/13 12:29:12;;;;;;;6.65;1.95;;;9.80;86.40;;;;;;5044538;28;20570;-80
2020/12/13 12:31:37;;;;;;;3.27;1.87;;;9.80;87.40;;;;;;5045135;28;20169;-81
2020/12/13 12:34:04;;;;;;;3.00;1.60;;;9.80;89.40;;;;;;5041976;28;20204;-83
2020/12/13 12:36:30;;;;;;;3.80;1.88;;;9.90;88.30;;;;;;5042798;28;20440;-83
2020/12/13 12:38:56;;;;;;;5.20;1.55;;;10.00;86.90;;;;;;5041019;28;20173;-82
2020/12/13 12:41:23;;;;;;;3.65;1.92;;;10.00;86.70;;;;;;5040291;28;20676;-82
2020/12/13 12:43:50;;;;;;;2.83;1.75;;;10.10;86.60;;;;;;5039630;28;20181;-82
2020/12/13 12:46:17;;;;;;;7.78;1.63;;;10.20;85.30;;;;;;5039287;28;20193;-82
2020/12/13 12:48:49;;;;;;;8.20;1.75;;;10.10;85.50;;;;;;5038580;28;20172;-82
2020/12/13 12:51:19;;;;;;;2.15;1.60;;;10.10;85.80;;;;;;5039036;28;20207;-82
2020/12/13 12:53:46;;;;;;;3.78;2.03;;;10.10;85.60;;;;;;5039183;28;20568;-82
2020/12/13 12:56:12;;;;;;;5.35;2.25;;;10.00;85.80;;;;;;5042982;28;20185;-81
2020/12/13 13:01:23;;;;;;;4.93;1.98;;;10.20;86.00;;;;;;5060924;28;20149;-81
2020/12/13 13:03:51;;;;;;;3.13;2.40;;;10.20;85.50;;;;;;5040297;28;20268;-82
2020/12/13 13:11:36;;;;;;;4.25;2.60;;;10.10;85.90;;;;;;5035749;28;20165;-84
2020/12/13 13:14:03;;;;;;;4.57;2.28;;;10.10;84.50;;;;;;5018969;28;20184;-84
2020/12/13 13:16:29;;;;;;;2.40;1.58;;;10.10;84.60;;;;;;5037607;28;20212;-85
2020/12/13 13:18:58;;;;;;;6.82;2.35;;;10.00;85.10;;;;;;5040359;28;20636;-84